createdAt,value
2017-08-21T00:02:16.227Z,17.08
2017-08-21T00:04:43.618Z,17.00
2017-08-21T00:07:11.242Z,16.89
2017-08-21T00:09:38.634Z,16.96
2017-08-21T00:12:06.029Z,16.82
2017-08-21T00:14:33.431Z,16.90
2017-08-21T00:17:00.824Z,16.81
2017-08-21T00:19:28.218Z,16.81
2017-08-21T00:21:55.712Z,16.78
2017-08-21T00:24:23.294Z,16.87
2017-08-21T00:26:50.682Z,16.84
2017-08-21T00:29:18.098Z,16.85
2017-08-21T00:31:45.490Z,16.72
2017-08-21T00:34:12.890Z,16.81
2017-08-21T00:36:40.303Z,16.71
2017-08-21T00:39:07.703Z,16.67
2017-08-21T00:41:35.086Z,16.62
2017-08-21T00:44:02.482Z,16.70
2017-08-21T00:46:29.879Z,16.65
2017-08-21T00:48:57.267Z,16.73
2017-08-21T00:51:24.955Z,16.72
2017-08-21T00:56:42.841Z,16.57
2017-08-21T00:59:10.230Z,16.51
2017-08-21T01:01:37.626Z,16.54
2017-08-21T01:04:05.025Z,16.33
2017-08-21T01:06:32.418Z,16.22
2017-08-21T01:08:59.818Z,16.00
2017-08-21T01:11:27.206Z,15.92
2017-08-21T01:13:54.611Z,15.86
2017-08-21T01:16:22.026Z,15.99
2017-08-21T01:18:49.406Z,15.95
2017-08-21T01:21:16.794Z,15.82
2017-08-21T01:23:44.187Z,15.79
2017-08-21T01:26:11.580Z,15.78
2017-08-21T01:28:38.978Z,15.80
2017-08-21T01:31:06.369Z,15.83
2017-08-21T01:33:34.046Z,15.88
2017-08-21T01:36:01.439Z,15.83
2017-08-21T01:38:28.839Z,15.91
2017-08-21T01:40:56.223Z,16.05
2017-08-21T01:43:23.614Z,15.85
2017-08-21T01:45:51.007Z,16.01
2017-08-21T01:48:18.407Z,15.95
2017-08-21T01:50:45.795Z,15.98
2017-08-21T01:53:13.186Z,16.09
2017-08-21T01:55:40.783Z,16.22
2017-08-21T01:58:08.187Z,16.21
2017-08-21T02:00:35.567Z,16.05
2017-08-21T02:03:02.985Z,16.09
2017-08-21T02:05:30.366Z,16.17
2017-08-21T02:07:57.754Z,16.15
2017-08-21T02:10:25.156Z,16.05
2017-08-21T02:12:52.556Z,15.99
2017-08-21T02:15:19.957Z,16.01
2017-08-21T02:17:47.347Z,16.00
2017-08-21T02:20:14.783Z,15.93
2017-08-21T02:22:42.187Z,15.99
2017-08-21T02:25:09.574Z,16.00
2017-08-21T02:27:36.960Z,16.01
2017-08-21T02:30:04.362Z,16.11
2017-08-21T02:32:31.746Z,16.00
2017-08-21T02:34:59.145Z,16.00
2017-08-21T02:37:26.558Z,16.01
2017-08-21T02:39:53.944Z,16.16
2017-08-21T02:42:21.331Z,16.25
2017-08-21T02:44:48.735Z,16.29
2017-08-21T02:47:16.118Z,16.41
2017-08-21T02:49:43.522Z,16.34
2017-08-21T02:52:10.913Z,16.27
2017-08-21T02:54:38.322Z,16.28
2017-08-21T02:57:05.706Z,16.36
2017-08-21T02:59:33.091Z,16.43
2017-08-21T03:02:00.490Z,16.36
2017-08-21T03:04:27.887Z,16.34
2017-08-21T03:06:55.287Z,16.39
2017-08-21T03:09:22.678Z,16.33
2017-08-21T03:11:50.075Z,16.34
2017-08-21T03:14:17.470Z,16.40
2017-08-21T03:16:44.870Z,16.41
2017-08-21T03:19:12.246Z,16.46
2017-08-21T03:21:39.639Z,16.48
2017-08-21T03:24:07.026Z,16.36
2017-08-21T03:26:34.420Z,16.35
2017-08-21T03:29:01.811Z,16.38
2017-08-21T03:31:29.206Z,16.34
2017-08-21T03:33:56.685Z,16.38
2017-08-21T03:36:24.066Z,16.33
2017-08-21T03:38:51.452Z,16.37
2017-08-21T03:41:18.842Z,16.40
2017-08-21T03:43:46.230Z,16.28
2017-08-21T03:46:13.627Z,16.29
2017-08-21T03:48:41.030Z,16.32
2017-08-21T03:51:08.427Z,16.31
2017-08-21T03:53:35.823Z,16.21
2017-08-21T03:56:03.215Z,16.23
2017-08-21T03:58:30.602Z,16.22
2017-08-21T04:00:58.062Z,16.13
2017-08-21T04:03:25.482Z,16.20
2017-08-21T04:05:52.870Z,16.20
2017-08-21T04:08:20.263Z,16.12
2017-08-21T04:10:47.646Z,16.01
2017-08-21T04:13:15.038Z,16.12
2017-08-21T04:15:42.434Z,16.08
2017-08-21T04:18:09.846Z,16.03
2017-08-21T04:20:44.711Z,15.96
2017-08-21T04:23:12.167Z,15.98
2017-08-21T04:25:39.547Z,16.13
2017-08-21T04:28:06.938Z,16.11
2017-08-21T04:30:34.348Z,16.11
2017-08-21T04:33:01.767Z,16.03
2017-08-21T04:35:29.151Z,16.01
2017-08-21T04:37:56.562Z,15.94
2017-08-21T04:40:24.006Z,15.96
2017-08-21T04:42:51.382Z,15.95
2017-08-21T04:45:18.799Z,15.94
2017-08-21T04:47:46.186Z,16.01
2017-08-21T04:50:13.621Z,15.91
2017-08-21T04:52:41.009Z,16.05
2017-08-21T04:55:08.385Z,15.80
2017-08-21T04:57:35.783Z,15.86
2017-08-21T05:00:03.890Z,15.84
2017-08-21T05:02:31.331Z,15.79
2017-08-21T05:04:58.724Z,15.80
2017-08-21T05:07:26.106Z,15.62
2017-08-21T05:09:53.545Z,15.53
2017-08-21T05:12:20.942Z,15.54
2017-08-21T05:14:48.328Z,15.70
2017-08-21T05:17:15.828Z,15.58
2017-08-21T05:19:43.305Z,15.55
2017-08-21T05:22:10.720Z,15.49
2017-08-21T05:24:38.170Z,15.27
2017-08-21T05:27:05.544Z,15.27
2017-08-21T05:29:32.974Z,15.30
2017-08-21T05:32:00.391Z,15.22
2017-08-21T05:34:27.794Z,15.22
2017-08-21T05:36:55.219Z,15.18
2017-08-21T05:39:22.643Z,15.21
2017-08-21T05:41:50.035Z,15.21
2017-08-21T05:44:17.458Z,15.27
2017-08-21T05:46:44.876Z,15.26
2017-08-21T05:49:12.279Z,15.24
2017-08-21T05:51:39.671Z,15.19
2017-08-21T05:54:07.058Z,15.10
2017-08-21T05:56:34.450Z,15.07
2017-08-21T05:59:01.843Z,15.11
2017-08-21T06:03:55.919Z,15.13
2017-08-21T06:06:23.322Z,15.21
2017-08-21T06:08:50.706Z,15.17
2017-08-21T06:11:18.106Z,15.25
2017-08-21T06:13:45.497Z,15.19
2017-08-21T06:16:12.899Z,15.32
2017-08-21T06:18:40.301Z,15.28
2017-08-21T06:21:07.698Z,15.16
2017-08-21T06:23:35.087Z,15.13
2017-08-21T06:26:02.495Z,15.25
2017-08-21T06:28:29.893Z,15.32
2017-08-21T06:30:57.282Z,15.42
2017-08-21T06:33:24.686Z,15.42
2017-08-21T06:35:52.091Z,15.38
2017-08-21T06:38:19.490Z,15.38
2017-08-21T06:40:46.883Z,15.41
2017-08-21T06:43:14.285Z,15.51
2017-08-21T06:45:41.674Z,15.57
2017-08-21T06:48:09.063Z,15.67
2017-08-21T06:50:36.455Z,15.68
2017-08-21T06:53:03.889Z,15.68
2017-08-21T06:55:31.283Z,15.78
2017-08-21T06:57:58.694Z,15.81
2017-08-21T07:00:26.093Z,15.89
2017-08-21T07:02:53.492Z,15.98
2017-08-21T07:05:20.878Z,16.01
2017-08-21T07:07:48.300Z,16.01
2017-08-21T07:10:15.707Z,16.03
2017-08-21T07:12:43.095Z,16.05
2017-08-21T07:15:10.495Z,16.14
2017-08-21T07:17:37.895Z,16.23
2017-08-21T07:20:05.286Z,16.34
2017-08-21T07:22:32.699Z,16.33
2017-08-21T07:25:00.091Z,16.33
2017-08-21T07:27:27.486Z,16.34
2017-08-21T07:29:54.892Z,16.33
2017-08-21T07:32:22.274Z,16.38
2017-08-21T07:34:49.670Z,16.41
2017-08-21T07:37:17.062Z,16.46
2017-08-21T07:39:44.467Z,16.44
2017-08-21T07:42:11.865Z,16.52
2017-08-21T07:44:39.258Z,16.56
2017-08-21T07:47:06.650Z,16.71
2017-08-21T07:49:34.052Z,16.74
2017-08-21T07:52:01.439Z,16.86
2017-08-21T07:54:28.843Z,16.90
2017-08-21T07:56:56.236Z,16.85
2017-08-21T07:59:23.648Z,16.85
2017-08-21T08:01:51.031Z,16.95
2017-08-21T08:04:18.427Z,17.08
2017-08-21T08:06:45.826Z,17.18
2017-08-21T08:09:13.214Z,17.14
2017-08-21T08:11:40.622Z,17.28
2017-08-21T08:14:08.014Z,17.38
2017-08-21T08:16:35.410Z,17.46
2017-08-21T08:19:02.796Z,17.53
2017-08-21T08:21:30.202Z,17.65
2017-08-21T08:23:57.590Z,17.79
2017-08-21T08:26:24.976Z,17.87
2017-08-21T08:28:52.384Z,17.89
2017-08-21T08:31:19.777Z,17.95
2017-08-21T08:33:47.194Z,17.87
2017-08-21T08:36:14.595Z,18.03
2017-08-21T08:38:42.036Z,18.08
2017-08-21T08:41:09.409Z,18.02
2017-08-21T08:43:36.798Z,18.09
2017-08-21T08:46:04.200Z,17.98
2017-08-21T08:48:31.588Z,18.09
2017-08-21T08:50:58.982Z,17.98
2017-08-21T08:53:26.374Z,18.13
2017-08-21T08:55:53.774Z,18.16
2017-08-21T08:58:21.175Z,18.29
2017-08-21T09:00:48.570Z,18.35
2017-08-21T09:03:15.986Z,18.36
2017-08-21T09:05:43.349Z,18.39
2017-08-21T09:08:10.751Z,18.44
2017-08-21T09:10:38.134Z,18.41
2017-08-21T09:13:05.536Z,18.47
2017-08-21T09:15:32.937Z,18.48
2017-08-21T09:18:00.323Z,18.53
2017-08-21T09:20:27.732Z,18.52
2017-08-21T09:22:55.105Z,18.51
2017-08-21T09:25:22.494Z,18.38
2017-08-21T09:27:49.900Z,18.34
2017-08-21T09:30:17.290Z,18.38
2017-08-21T09:32:44.689Z,18.51
2017-08-21T09:35:12.073Z,18.60
2017-08-21T09:37:39.463Z,18.56
2017-08-21T09:40:06.850Z,18.53
2017-08-21T09:42:34.269Z,18.53
2017-08-21T09:45:01.651Z,18.68
2017-08-21T09:47:29.050Z,18.75
2017-08-21T09:49:56.430Z,18.86
2017-08-21T09:52:23.824Z,18.90
2017-08-21T09:54:51.214Z,18.89
2017-08-21T09:57:18.603Z,18.93
2017-08-21T09:59:46.002Z,18.94
2017-08-21T10:02:13.390Z,18.88
2017-08-21T10:04:40.782Z,18.84
2017-08-21T10:07:08.163Z,18.89
2017-08-21T10:09:35.563Z,18.94
2017-08-21T10:12:02.951Z,18.96
2017-08-21T10:14:30.523Z,18.90
2017-08-21T10:16:57.910Z,18.96
2017-08-21T10:19:25.302Z,19.02
2017-08-21T10:21:52.681Z,19.05
2017-08-21T10:24:20.071Z,19.08
2017-08-21T10:26:47.460Z,19.10
2017-08-21T10:29:14.847Z,19.02
2017-08-21T10:31:42.240Z,19.05
2017-08-21T10:34:09.624Z,19.09
2017-08-21T10:36:37.014Z,19.11
2017-08-21T10:39:04.441Z,19.22
2017-08-21T10:41:31.831Z,19.24
2017-08-21T10:43:59.276Z,19.32
2017-08-21T10:46:26.711Z,19.41
2017-08-21T10:48:54.088Z,19.51
2017-08-21T10:51:21.479Z,19.60
2017-08-21T10:53:48.867Z,19.70
2017-08-21T10:56:16.252Z,19.68
2017-08-21T10:58:43.636Z,19.69
2017-08-21T11:01:11.040Z,19.72
2017-08-21T11:03:38.421Z,19.69
2017-08-21T11:06:05.826Z,19.63
2017-08-21T11:08:33.219Z,19.62
2017-08-21T11:11:00.618Z,19.74
2017-08-21T11:13:28.000Z,19.83
2017-08-21T11:15:55.398Z,19.92
2017-08-21T11:18:22.792Z,20.12
2017-08-21T11:20:50.190Z,20.10
2017-08-21T11:23:17.583Z,20.22
2017-08-21T11:25:44.987Z,20.17
2017-08-21T11:28:12.378Z,20.06
2017-08-21T11:30:39.767Z,19.99
2017-08-21T11:33:07.166Z,20.09
2017-08-21T11:35:34.559Z,20.13
2017-08-21T11:38:01.958Z,20.26
2017-08-21T11:40:29.350Z,20.14
2017-08-21T11:42:56.742Z,19.95
2017-08-21T11:45:24.126Z,19.90
2017-08-21T11:47:51.523Z,19.88
2017-08-21T11:50:18.902Z,20.04
2017-08-21T11:52:46.292Z,20.09
2017-08-21T11:55:13.688Z,20.22
2017-08-21T11:57:41.078Z,20.32
2017-08-21T12:00:08.470Z,20.22
2017-08-21T12:02:35.883Z,20.32
2017-08-21T12:05:03.272Z,20.39
2017-08-21T12:07:30.738Z,20.47
2017-08-21T12:09:58.363Z,20.49
2017-08-21T12:12:25.760Z,20.41
2017-08-21T12:14:53.143Z,20.41
2017-08-21T12:17:20.564Z,20.51
2017-08-21T12:19:47.931Z,20.57
2017-08-21T12:22:15.326Z,20.43
2017-08-21T12:24:42.716Z,20.48
2017-08-21T12:27:10.111Z,20.01
2017-08-21T12:29:37.499Z,19.59
2017-08-21T12:32:04.913Z,19.46
2017-08-21T12:34:32.290Z,19.35
2017-08-21T12:36:59.675Z,19.44
2017-08-21T12:39:27.080Z,19.33
2017-08-21T12:41:54.503Z,19.34
2017-08-21T12:44:21.900Z,19.47
2017-08-21T12:46:49.297Z,19.58
2017-08-21T12:49:16.687Z,19.48
2017-08-21T12:51:44.071Z,19.56
2017-08-21T12:54:11.459Z,19.67
2017-08-21T12:56:38.848Z,19.60
2017-08-21T12:59:06.239Z,19.59
2017-08-21T13:01:33.632Z,19.78
2017-08-21T13:04:01.024Z,19.83
2017-08-21T13:06:28.407Z,19.98
2017-08-21T13:08:55.811Z,20.02
2017-08-21T13:11:23.201Z,20.15
2017-08-21T13:13:50.586Z,20.21
2017-08-21T13:16:17.995Z,20.13
2017-08-21T13:18:45.616Z,20.14
2017-08-21T13:21:12.998Z,20.16
2017-08-21T13:23:40.395Z,20.02
2017-08-21T13:26:07.774Z,20.03
2017-08-21T13:28:35.177Z,19.92
2017-08-21T13:31:02.566Z,19.94
2017-08-21T13:33:29.966Z,19.97
2017-08-21T13:35:57.346Z,20.06
2017-08-21T13:38:24.741Z,20.17
2017-08-21T13:40:52.126Z,20.25
2017-08-21T13:43:19.525Z,20.25
2017-08-21T13:45:46.916Z,20.23
2017-08-21T13:48:14.310Z,20.04
2017-08-21T13:50:41.699Z,20.02
2017-08-21T13:53:09.103Z,19.93
2017-08-21T13:55:36.490Z,19.85
2017-08-21T13:58:03.882Z,19.79
2017-08-21T14:00:31.274Z,19.87
2017-08-21T14:02:58.658Z,19.95
2017-08-21T14:05:26.051Z,19.91
2017-08-21T14:07:53.446Z,19.92
2017-08-21T14:10:20.834Z,19.97
2017-08-21T14:12:48.223Z,19.87
2017-08-21T14:15:15.629Z,19.86
2017-08-21T14:17:43.010Z,19.87
2017-08-21T14:20:10.402Z,19.87
2017-08-21T14:22:37.797Z,19.89
2017-08-21T14:25:05.207Z,19.89
2017-08-21T14:27:32.599Z,19.86
2017-08-21T14:30:00.012Z,19.92
2017-08-21T14:32:27.396Z,19.89
2017-08-21T14:34:54.783Z,19.94
2017-08-21T14:37:22.174Z,19.80
2017-08-21T14:39:49.563Z,19.69
2017-08-21T14:42:16.967Z,19.71
2017-08-21T14:44:44.354Z,19.86
2017-08-21T14:47:12.278Z,19.98
2017-08-21T14:49:40.075Z,20.03
2017-08-21T14:52:07.515Z,19.99
2017-08-21T14:54:35.203Z,19.91
2017-08-21T14:57:03.619Z,19.97
2017-08-21T14:59:31.011Z,20.07
2017-08-21T15:01:58.439Z,20.05
2017-08-21T15:04:25.817Z,20.05
2017-08-21T15:06:53.215Z,20.06
2017-08-21T15:09:20.824Z,20.08
2017-08-21T15:11:48.231Z,20.04
2017-08-21T15:14:15.622Z,19.93
2017-08-21T15:16:43.015Z,19.89
2017-08-21T15:19:10.406Z,19.88
2017-08-21T15:21:37.823Z,19.89
2017-08-21T15:24:05.216Z,19.95
2017-08-21T15:26:32.611Z,19.96
2017-08-21T15:29:00.011Z,19.97
2017-08-21T15:31:27.399Z,19.99
2017-08-21T15:33:54.799Z,20.03
2017-08-21T15:36:22.193Z,20.02
2017-08-21T15:38:49.592Z,20.01
2017-08-21T15:41:16.983Z,20.10
2017-08-21T15:43:44.370Z,20.06
2017-08-21T15:46:11.778Z,20.14
2017-08-21T15:48:39.185Z,20.14
2017-08-21T15:51:06.775Z,20.10
2017-08-21T15:53:34.172Z,20.04
2017-08-21T15:56:01.560Z,20.06
2017-08-21T15:58:28.959Z,19.99
2017-08-21T16:00:56.348Z,19.98
2017-08-21T16:03:23.754Z,19.93
2017-08-21T16:05:51.135Z,19.97
2017-08-21T16:08:18.538Z,20.09
2017-08-21T16:10:45.953Z,20.03
2017-08-21T16:13:13.352Z,20.05
2017-08-21T16:15:40.735Z,20.10
2017-08-21T16:18:08.158Z,20.17
2017-08-21T16:20:35.531Z,20.21
2017-08-21T16:23:02.923Z,20.19
2017-08-21T16:25:30.319Z,20.14
2017-08-21T16:27:57.723Z,20.15
2017-08-21T16:30:25.394Z,20.07
2017-08-21T16:32:52.796Z,20.08
2017-08-21T16:35:20.200Z,20.09
2017-08-21T16:40:37.742Z,20.17
2017-08-21T16:43:05.126Z,20.14
2017-08-21T16:45:32.518Z,20.26
2017-08-21T16:47:59.907Z,20.39
2017-08-21T16:50:27.307Z,20.37
2017-08-21T16:52:54.699Z,20.33
2017-08-21T16:55:22.187Z,20.36
2017-08-21T16:57:49.562Z,20.49
2017-08-21T17:00:16.954Z,20.48
2017-08-21T17:02:44.356Z,20.64
2017-08-21T17:05:11.769Z,20.69
2017-08-21T17:07:39.151Z,20.59
2017-08-21T17:10:06.555Z,20.65
2017-08-21T17:12:33.938Z,20.70
2017-08-21T17:15:01.323Z,20.65
2017-08-21T17:17:28.714Z,20.72
2017-08-21T17:19:56.099Z,20.71
2017-08-21T17:22:23.507Z,20.71
2017-08-21T17:24:50.913Z,20.67
2017-08-21T17:27:18.308Z,20.60
2017-08-21T17:29:45.697Z,20.58
2017-08-21T17:32:13.091Z,20.53
2017-08-21T17:34:40.480Z,20.41
2017-08-21T17:37:07.874Z,20.55
2017-08-21T17:39:35.266Z,20.47
2017-08-21T17:42:02.694Z,20.47
2017-08-21T17:44:30.076Z,20.46
2017-08-21T17:46:57.471Z,20.38
2017-08-21T17:49:24.858Z,20.36
2017-08-21T17:51:52.251Z,20.28
2017-08-21T17:54:19.635Z,20.20
2017-08-21T17:56:47.022Z,20.16
2017-08-21T17:59:14.415Z,20.24
2017-08-21T18:01:41.823Z,20.29
2017-08-21T18:04:09.207Z,20.30
2017-08-21T18:06:36.599Z,20.32
2017-08-21T18:09:04.006Z,20.19
2017-08-21T18:11:31.395Z,20.14
2017-08-21T18:13:58.790Z,20.07
2017-08-21T18:16:26.179Z,20.02
2017-08-21T18:18:53.566Z,19.95
2017-08-21T18:21:20.955Z,19.90
2017-08-21T18:23:48.358Z,19.77
2017-08-21T18:26:15.746Z,19.65
2017-08-21T18:28:43.138Z,19.72
2017-08-21T18:31:10.527Z,19.70
2017-08-21T18:33:37.927Z,19.75
2017-08-21T18:36:05.325Z,19.78
2017-08-21T18:38:32.718Z,19.75
2017-08-21T18:41:00.103Z,19.80
2017-08-21T18:43:27.552Z,19.91
2017-08-21T18:45:55.025Z,20.03
2017-08-21T18:48:22.426Z,20.04
2017-08-21T18:50:49.880Z,20.13
2017-08-21T18:53:17.263Z,20.21
2017-08-21T18:55:44.671Z,20.23
2017-08-21T18:58:12.411Z,20.24
2017-08-21T19:00:39.815Z,20.31
2017-08-21T19:03:07.206Z,20.34
2017-08-21T19:05:34.599Z,20.32
2017-08-21T19:08:01.990Z,20.35
2017-08-21T19:10:29.395Z,20.35
2017-08-21T19:12:56.791Z,20.28
2017-08-21T19:15:24.182Z,20.26
2017-08-21T19:17:51.573Z,20.26
2017-08-21T19:20:18.968Z,20.27
2017-08-21T19:22:46.358Z,20.08
2017-08-21T19:25:13.747Z,20.09
2017-08-21T19:27:41.156Z,20.00
2017-08-21T19:30:08.544Z,19.99
2017-08-21T19:32:35.932Z,19.99
2017-08-21T19:35:03.338Z,19.95
2017-08-21T19:37:30.749Z,19.98
2017-08-21T19:39:58.143Z,19.89
2017-08-21T19:42:25.532Z,19.82
2017-08-21T19:44:53.068Z,19.74
2017-08-21T19:49:53.409Z,19.67
2017-08-21T19:52:20.818Z,19.65
2017-08-21T19:54:48.206Z,19.56
2017-08-21T19:57:15.631Z,19.42
2017-08-21T19:59:43.029Z,19.53
2017-08-21T20:02:10.412Z,19.49
2017-08-21T20:04:37.823Z,19.44
2017-08-21T20:07:05.210Z,19.47
2017-08-21T20:09:32.611Z,19.48
2017-08-21T20:12:00.013Z,19.45
2017-08-21T20:14:27.395Z,19.39
2017-08-21T20:16:54.796Z,19.34
2017-08-21T20:19:22.186Z,19.32
2017-08-21T20:21:49.591Z,19.23
2017-08-21T20:24:16.974Z,19.15
2017-08-21T20:26:44.583Z,19.12
2017-08-21T20:29:15.221Z,19.04
2017-08-21T20:31:48.141Z,18.96
2017-08-21T20:34:16.541Z,18.93
2017-08-21T20:36:44.109Z,18.89
2017-08-21T20:39:11.510Z,18.90
2017-08-21T20:41:38.913Z,18.86
2017-08-21T20:44:06.302Z,18.89
2017-08-21T20:46:33.718Z,18.97
2017-08-21T20:49:01.175Z,18.86
2017-08-21T20:51:28.799Z,18.78
2017-08-21T20:53:56.188Z,18.69
2017-08-21T20:56:49.330Z,18.64
2017-08-21T20:59:16.727Z,18.68
2017-08-21T21:01:44.128Z,18.69
2017-08-21T21:04:12.758Z,18.69
2017-08-21T21:06:40.151Z,18.72
2017-08-21T21:09:07.570Z,18.67
2017-08-21T21:11:34.962Z,18.69
2017-08-21T21:14:02.354Z,18.62
2017-08-21T21:16:29.735Z,18.59
2017-08-21T21:18:57.122Z,18.59
2017-08-21T21:21:24.503Z,18.52
2017-08-21T21:23:51.898Z,18.53
2017-08-21T21:26:19.300Z,18.48
2017-08-21T21:28:46.691Z,18.53
2017-08-21T21:31:14.083Z,18.56
2017-08-21T21:33:41.467Z,18.40
2017-08-21T21:36:08.867Z,18.40
2017-08-21T21:38:36.258Z,18.34
2017-08-21T21:41:03.824Z,18.28
2017-08-21T21:43:31.478Z,18.31
2017-08-21T21:45:58.873Z,18.30
2017-08-21T21:48:26.260Z,18.17
2017-08-21T21:50:53.651Z,18.11
2017-08-21T21:53:21.046Z,17.97
2017-08-21T21:55:48.450Z,17.89
2017-08-21T21:58:15.838Z,17.93
2017-08-21T22:00:43.243Z,17.86
2017-08-21T22:03:10.630Z,17.83
2017-08-21T22:05:38.068Z,17.93
2017-08-21T22:08:05.457Z,17.93
2017-08-21T22:10:32.846Z,17.73
2017-08-21T22:13:00.235Z,17.83
2017-08-21T22:15:27.620Z,17.83
2017-08-21T22:17:55.014Z,17.80
2017-08-21T22:20:22.412Z,17.79
2017-08-21T22:22:49.807Z,17.81
2017-08-21T22:25:17.190Z,17.71
2017-08-21T22:27:44.582Z,17.57
2017-08-21T22:30:11.970Z,17.70
2017-08-21T22:32:39.383Z,17.72
2017-08-21T22:35:06.781Z,17.81
2017-08-21T22:37:35.044Z,17.59
2017-08-21T22:40:02.427Z,17.55
2017-08-21T22:42:29.836Z,17.56
2017-08-21T22:44:57.226Z,17.37
2017-08-21T22:47:24.622Z,17.44
2017-08-21T22:49:52.034Z,17.48
2017-08-21T22:52:19.415Z,17.06
2017-08-21T22:54:46.812Z,17.34
2017-08-21T22:57:14.203Z,17.26
2017-08-21T22:59:41.606Z,17.17
2017-08-21T23:02:08.994Z,17.16
2017-08-21T23:04:36.599Z,17.09
2017-08-21T23:07:04.636Z,17.12
2017-08-21T23:09:32.018Z,17.10
2017-08-21T23:11:59.403Z,17.09
2017-08-21T23:14:26.811Z,16.86
2017-08-21T23:16:54.206Z,16.84
2017-08-21T23:19:21.590Z,16.77
2017-08-21T23:21:48.987Z,16.85
2017-08-21T23:24:16.375Z,16.85
2017-08-21T23:26:43.775Z,16.72
2017-08-21T23:29:11.166Z,16.66
2017-08-21T23:31:38.563Z,16.68
2017-08-21T23:34:05.963Z,16.63
2017-08-21T23:36:34.242Z,16.62
2017-08-21T23:39:01.627Z,16.58
2017-08-21T23:41:29.022Z,16.53
2017-08-21T23:43:56.414Z,16.49
2017-08-21T23:46:23.810Z,16.42
2017-08-21T23:48:51.202Z,16.45
2017-08-21T23:51:18.630Z,16.44
2017-08-21T23:53:46.014Z,16.46
2017-08-21T23:56:13.406Z,16.43
2017-08-21T23:58:40.794Z,16.45
